Time;durP1;ratioP1;P1;durP2;ratioP2;P2;SDS_P1;SDS_P2;PMS_P1;PMS_P2;Temp;Humidity;BMP_temperature;BMP_pressure;BME280_temperature;BME280_humidity;BME280_pressure;Samples;Min_cycle;Max_cycle;Signal;HPM_P1;HPM_P2
2022/04/17 00:00:36;;;;;;;11.93;7.90;;;;;;;-0.06;100.00;102458.63;4912125;29;20234;-70
2022/04/17 00:03:03;;;;;;;10.90;7.43;;;;;;;-0.08;100.00;102460.25;4912006;29;20223;-70
2022/04/17 00:05:30;;;;;;;14.53;7.73;;;;;;;-0.20;100.00;102463.97;4912362;29;20236;-70
2022/04/17 00:07:57;;;;;;;11.87;7.50;;;;;;;-0.26;100.00;102457.72;4912107;29;20211;-70
2022/04/17 00:10:23;;;;;;;12.73;7.10;;;;;;;-0.25;100.00;102455.19;4912473;29;20204;-70
2022/04/17 00:12:50;;;;;;;10.00;6.90;;;;;;;-0.17;100.00;102441.88;4915171;29;20588;-70
2022/04/17 00:15:16;;;;;;;11.43;6.97;;;;;;;-0.16;100.00;102443.63;4915308;29;20235;-70
2022/04/17 00:17:43;;;;;;;14.80;8.10;;;;;;;-0.09;100.00;102443.09;4915956;29;20208;-70
2022/04/17 00:20:11;;;;;;;11.97;7.70;;;;;;;-0.20;100.00;102437.47;4916291;29;20203;-70
2022/04/17 00:22:39;;;;;;;9.83;6.70;;;;;;;-0.26;100.00;102442.34;4915391;29;20346;-70
2022/04/17 00:25:07;;;;;;;10.87;6.77;;;;;;;-0.31;100.00;102442.09;4922299;29;20219;-70
2022/04/17 00:27:34;;;;;;;13.03;7.60;;;;;;;-0.44;100.00;102442.31;4915780;29;20204;-70
2022/04/17 00:30:00;;;;;;;9.77;6.63;;;;;;;-0.38;100.00;102440.94;4915779;29;20204;-70
2022/04/17 00:32:27;;;;;;;10.43;7.13;;;;;;;-0.53;100.00;102444.44;4915133;29;20216;-70
2022/04/17 00:34:54;;;;;;;10.90;6.57;;;;;;;-0.64;100.00;102441.34;4918796;29;20235;-70
2022/04/17 00:37:20;;;;;;;8.47;6.67;;;;;;;-0.62;100.00;102448.28;4915989;29;20232;-70
2022/04/17 00:39:48;;;;;;;11.17;7.17;;;;;;;-0.75;100.00;102450.22;4926725;29;20207;-70
2022/04/17 00:42:14;;;;;;;10.60;6.80;;;;;;;-0.73;100.00;102446.03;4920173;29;20223;-70
2022/04/17 00:44:41;;;;;;;10.47;6.60;;;;;;;-0.65;100.00;102445.59;4924600;29;20307;-70
2022/04/17 00:47:08;;;;;;;10.43;6.40;;;;;;;-0.73;100.00;102444.34;4915310;29;20223;-70
2022/04/17 00:49:35;;;;;;;11.47;7.00;;;;;;;-0.72;100.00;102438.44;4916954;29;20219;-70
2022/04/17 00:52:04;;;;;;;11.50;6.80;;;;;;;-0.84;100.00;102442.94;4921667;29;20214;-70
2022/04/17 00:54:31;;;;;;;9.63;6.87;;;;;;;-0.79;100.00;102438.94;4920629;29;20238;-70
2022/04/17 00:57:01;;;;;;;10.90;6.73;;;;;;;-0.94;100.00;102441.59;4915122;29;20222;-70
2022/04/17 00:59:28;;;;;;;9.13;6.87;;;;;;;-0.86;100.00;102441.97;4915841;29;20204;-70
2022/04/17 01:01:54;;;;;;;10.87;7.00;;;;;;;-0.80;100.00;102437.16;4922443;29;20200;-70
2022/04/17 01:04:20;;;;;;;9.83;6.70;;;;;;;-0.81;100.00;102430.28;4915617;29;20234;-70
2022/04/17 01:06:47;;;;;;;11.83;6.97;;;;;;;-0.81;100.00;102430.28;4915423;29;20227;-70
2022/04/17 01:09:15;;;;;;;9.77;6.13;;;;;;;-0.81;100.00;102425.16;4916665;29;20214;-70
2022/04/17 01:11:42;;;;;;;8.50;5.47;;;;;;;-0.94;100.00;102426.22;4920012;29;20208;-70
2022/04/17 01:14:12;;;;;;;11.23;6.20;;;;;;;-1.03;100.00;102426.66;4915405;29;20223;-70
2022/04/17 01:16:39;;;;;;;11.70;6.87;;;;;;;-1.09;100.00;102423.78;4921938;29;20533;-70
2022/04/17 01:19:11;;;;;;;10.57;6.63;;;;;;;-1.12;100.00;102433.00;4919041;29;20227;-70
2022/04/17 01:21:39;;;;;;;9.03;5.87;;;;;;;-1.08;100.00;102424.66;4915060;29;20574;-70
2022/04/17 01:26:59;;;;;;;8.50;6.10;;;;;;;-0.98;100.00;102419.22;4908934;29;20212;-70
2022/04/17 01:29:28;;;;;;;8.33;5.93;;;;;;;-1.11;100.00;102417.69;4921079;29;20550;-70
2022/04/17 01:31:56;;;;;;;9.73;6.73;;;;;;;-1.10;100.00;102427.16;4918035;29;20480;-70
2022/04/17 01:34:23;;;;;;;15.63;6.90;;;;;;;-1.20;100.00;102430.03;4920207;29;20230;-70
2022/04/17 01:36:51;;;;;;;11.03;6.93;;;;;;;-1.11;100.00;102429.63;4914703;29;21034;-70
2022/04/17 01:39:18;;;;;;;10.70;7.17;;;;;;;-1.10;100.00;102436.53;4929144;29;20205;-70
2022/04/17 01:41:46;;;;;;;12.57;7.77;;;;;;;-1.20;100.00;102428.34;4918807;29;20456;-70
2022/04/17 01:44:12;;;;;;;12.40;7.80;;;;;;;-1.13;100.00;102419.31;4914357;29;20231;-70
2022/04/17 01:46:39;;;;;;;12.07;7.53;;;;;;;-1.21;100.00;102418.94;4914547;29;20826;-70
2022/04/17 01:49:05;;;;;;;14.67;8.30;;;;;;;-1.13;100.00;102413.31;4915473;29;20467;-70
2022/04/17 01:51:38;;;;;;;12.97;7.53;;;;;;;-1.09;100.00;102407.53;4918472;29;20268;-70
2022/04/17 01:54:06;;;;;;;13.70;8.27;;;;;;;-1.09;100.00;102412.66;4916042;29;20496;-70
2022/04/17 01:56:33;;;;;;;15.70;9.07;;;;;;;-1.13;100.00;102410.75;4914667;29;20204;-70
2022/04/17 01:58:59;;;;;;;15.23;8.83;;;;;;;-1.17;100.00;102415.72;4919376;29;20527;-70
2022/04/17 02:01:26;;;;;;;16.10;8.60;;;;;;;-1.38;100.00;102414.63;4918586;29;20213;-70
2022/04/17 02:03:53;;;;;;;12.90;8.47;;;;;;;-1.26;100.00;102415.25;4917669;29;20479;-70
2022/04/17 02:06:19;;;;;;;18.30;10.10;;;;;;;-1.31;100.00;102419.25;4922727;29;20466;-70
2022/04/17 02:08:45;;;;;;;16.50;9.80;;;;;;;-1.22;100.00;102414.59;4919197;29;20459;-70
2022/04/17 02:11:13;;;;;;;18.97;10.53;;;;;;;-1.16;100.00;102412.38;4918182;29;20835;-70
2022/04/17 02:13:41;;;;;;;17.60;10.27;;;;;;;-1.12;100.00;102409.97;4922001;29;20480;-70
2022/04/17 02:16:07;;;;;;;17.47;10.77;;;;;;;-1.06;100.00;102413.69;4913893;29;20457;-70
2022/04/17 02:18:34;;;;;;;16.60;9.97;;;;;;;-1.13;100.00;102408.19;4913808;29;20953;-70
2022/04/17 02:21:01;;;;;;;20.40;11.13;;;;;;;-0.97;100.00;102413.28;4917197;29;20459;-70
2022/04/17 02:23:28;;;;;;;17.87;11.07;;;;;;;-1.07;100.00;102416.16;4918464;29;20208;-70
2022/04/17 02:25:55;;;;;;;18.47;10.70;;;;;;;-1.05;100.00;102414.59;4918460;29;20519;-70
2022/04/17 02:28:22;;;;;;;22.93;10.80;;;;;;;-1.05;100.00;102415.47;4913589;29;20463;-70
2022/04/17 02:30:49;;;;;;;19.17;10.43;;;;;;;-1.21;100.00;102420.63;4917562;29;20208;-70
2022/04/17 02:33:15;;;;;;;19.63;11.03;;;;;;;-0.94;100.00;102413.44;4925238;29;20472;-70
2022/04/17 02:35:42;;;;;;;15.90;10.67;;;;;;;-1.03;100.00;102415.53;4912199;29;20223;-70
2022/04/17 02:38:08;;;;;;;17.67;10.73;;;;;;;-1.03;100.00;102415.53;4913760;29;20200;-70
2022/04/17 02:40:35;;;;;;;21.03;11.53;;;;;;;-1.03;100.00;102428.34;4913412;29;20215;-70
2022/04/17 02:43:01;;;;;;;19.93;10.90;;;;;;;-1.02;100.00;102430.97;4913328;29;20196;-70
2022/04/17 02:45:29;;;;;;;19.40;10.97;;;;;;;-1.06;100.00;102431.59;4921245;29;20481;-70
2022/04/17 02:47:55;;;;;;;20.53;11.50;;;;;;;-0.96;100.00;102433.84;4914833;29;20208;-70
2022/04/17 02:50:22;;;;;;;20.63;11.10;;;;;;;-0.96;100.00;102436.41;4930048;29;20210;-70
2022/04/17 02:52:49;;;;;;;19.80;9.53;;;;;;;-1.04;100.00;102437.72;4914174;29;20214;-70
2022/04/17 02:55:15;;;;;;;15.70;9.43;;;;;;;-1.16;100.00;102439.66;4913849;29;20278;-70
2022/04/17 02:57:42;;;;;;;18.47;9.17;;;;;;;-1.21;100.00;102444.53;4914978;29;20204;-70
2022/04/17 03:00:10;;;;;;;14.27;8.73;;;;;;;-1.07;100.00;102441.78;4915390;29;20463;-70
2022/04/17 03:05:37;;;;;;;15.67;8.50;;;;;;;-1.16;100.00;102439.66;4910782;29;20713;-70
2022/04/17 03:08:04;;;;;;;18.17;10.00;;;;;;;-0.97;100.00;102434.66;4919234;29;20627;-70
2022/04/17 03:10:31;;;;;;;15.27;9.37;;;;;;;-1.02;100.00;102430.06;4930382;29;20261;-70
2022/04/17 03:12:57;;;;;;;19.33;9.20;;;;;;;-1.10;100.00;102437.38;4925131;29;20194;-70
2022/04/17 03:15:24;;;;;;;15.93;9.03;;;;;;;-0.87;100.00;102427.41;4912867;29;20248;-70
2022/04/17 03:17:52;;;;;;;15.33;9.03;;;;;;;-1.06;100.00;102429.03;4913035;29;20462;-70
2022/04/17 03:20:18;;;;;;;13.97;8.63;;;;;;;-1.04;100.00;102426.56;4912410;29;20275;-70
2022/04/17 03:22:44;;;;;;;18.60;9.67;;;;;;;-1.11;100.00;102422.81;4911672;29;20206;-70
2022/04/17 03:25:12;;;;;;;14.07;8.90;;;;;;;-1.13;100.00;102411.63;4915081;29;20230;-70
2022/04/17 03:27:40;;;;;;;19.30;9.53;;;;;;;-1.11;100.00;102404.03;4916733;29;20214;-70
2022/04/17 03:30:06;;;;;;;16.33;9.67;;;;;;;-1.16;100.00;102407.25;4925940;29;20245;-70
2022/04/17 03:32:33;;;;;;;15.63;9.10;;;;;;;-1.28;100.00;102416.00;4914380;29;20211;-70
2022/04/17 03:35:01;;;;;;;16.23;9.13;;;;;;;-1.19;100.00;102411.34;4915661;29;20235;-70
2022/04/17 03:37:33;;;;;;;18.50;10.43;;;;;;;-1.28;100.00;102409.19;4914988;29;20215;-70
2022/04/17 03:40:24;;;;;;;16.00;9.80;;;;;;;-1.34;100.00;102406.28;4918239;29;20208;-70
2022/04/17 03:42:58;;;;;;;18.30;9.97;;;;;;;-1.41;100.00;102401.66;4909598;29;20200;-70
2022/04/17 03:45:38;;;;;;;22.17;10.73;;;;;;;-1.47;100.00;102397.13;4915776;29;20220;-70
2022/04/17 03:48:12;;;;;;;19.60;10.03;;;;;;;-1.48;100.00;102397.91;4917206;29;20733;-70
2022/04/17 03:50:48;;;;;;;19.57;10.27;;;;;;;-1.49;100.00;102400.41;4917194;29;20491;-70
2022/04/17 03:53:15;;;;;;;18.47;11.00;;;;;;;-1.44;100.00;102396.38;4916054;29;20450;-70
2022/04/17 03:55:45;;;;;;;22.23;10.83;;;;;;;-1.55;100.00;102396.75;4909272;29;20234;-70
2022/04/17 03:58:18;;;;;;;20.00;10.60;;;;;;;-1.60;100.00;102397.28;4916298;29;20740;-70
2022/04/17 04:00:51;;;;;;;24.03;11.10;;;;;;;-1.61;100.00;102395.53;4912061;29;20514;-70
2022/04/17 04:06:21;;;;;;;21.67;11.07;;;;;;;-1.57;100.00;102379.53;4959893;23;20544;-73
2022/04/17 04:08:49;;;;;;;20.77;11.27;;;;;;;-1.49;100.00;102382.50;4955180;28;20440;-73
2022/04/17 04:11:16;;;;;;;23.90;10.80;;;;;;;-1.54;100.00;102383.13;4955082;28;20449;-72
2022/04/17 04:13:43;;;;;;;23.97;11.53;;;;;;;-1.55;100.00;102383.94;4954636;29;21244;-73
2022/04/17 04:16:09;;;;;;;20.60;12.10;;;;;;;-1.65;100.00;102384.25;4954867;28;20592;-72
2022/04/17 04:18:36;;;;;;;19.47;11.40;;;;;;;-1.66;100.00;102381.63;4953288;28;20552;-73
2022/04/17 04:21:02;;;;;;;25.00;11.53;;;;;;;-1.58;100.00;102376.09;4955092;28;20209;-72
2022/04/17 04:23:33;;;;;;;21.07;11.20;;;;;;;-1.57;100.00;102377.84;4954623;28;20477;-72
2022/04/17 04:25:59;;;;;;;18.30;11.03;;;;;;;-1.56;100.00;102373.63;4954797;28;20512;-72
2022/04/17 04:28:36;;;;;;;18.90;11.27;;;;;;;-1.49;100.00;102377.38;4954610;28;20512;-73
2022/04/17 04:31:03;;;;;;;27.03;11.47;;;;;;;-1.59;100.00;102378.59;4954641;28;20939;-73
2022/04/17 04:33:31;;;;;;;21.83;11.47;;;;;;;-1.42;100.00;102379.47;4954033;28;20454;-72
2022/04/17 04:35:58;;;;;;;22.50;11.53;;;;;;;-1.36;100.00;102374.63;4954354;28;20488;-73
2022/04/17 04:38:25;;;;;;;20.70;11.13;;;;;;;-1.43;100.00;102375.13;4954596;28;20465;-72
2022/04/17 04:40:53;;;;;;;21.97;11.63;;;;;;;-1.45;100.00;102369.94;4954996;28;20450;-73
2022/04/17 04:43:19;;;;;;;22.13;11.17;;;;;;;-1.34;100.00;102371.38;4954137;28;20454;-72
2022/04/17 04:51:14;;;;;;;21.17;10.77;;;;;;;-1.46;100.00;102368.19;4944540;29;20970;-72
2022/04/17 04:53:41;;;;;;;17.87;10.47;;;;;;;-1.48;100.00;102371.44;4946372;29;20488;-72
2022/04/17 04:56:09;;;;;;;19.43;10.40;;;;;;;-1.31;100.00;102362.94;4954303;28;20488;-72
2022/04/17 04:58:36;;;;;;;15.70;10.27;;;;;;;-1.38;100.00;102360.88;4953804;28;20461;-72
2022/04/17 05:01:02;;;;;;;19.90;10.10;;;;;;;-1.41;100.00;102363.28;4953899;28;21244;-72
2022/04/17 05:03:29;;;;;;;16.40;9.90;;;;;;;-1.33;100.00;102360.31;4953471;28;20452;-72
2022/04/17 05:05:57;;;;;;;19.23;11.03;;;;;;;-1.30;100.00;102351.94;4949788;28;20230;-72
2022/04/17 05:08:23;;;;;;;21.47;10.20;;;;;;;-1.25;100.00;102363.28;4954018;28;20463;-72
2022/04/17 05:10:50;;;;;;;15.23;9.47;;;;;;;-1.17;100.00;102361.94;4952349;29;20575;-72
2022/04/17 05:13:17;;;;;;;18.63;9.80;;;;;;;-1.09;100.00;102357.22;4956354;28;20457;-72
2022/04/17 05:15:44;;;;;;;18.30;10.17;;;;;;;-0.97;100.00;102350.16;4953723;28;20496;-72
2022/04/17 05:18:10;;;;;;;16.90;9.63;;;;;;;-1.01;100.00;102348.22;4953856;28;20462;-72
2022/04/17 05:20:37;;;;;;;20.57;9.97;;;;;;;-0.94;100.00;102356.22;4951815;28;20218;-72
2022/04/17 05:23:15;;;;;;;16.27;9.43;;;;;;;-0.93;100.00;102355.41;4953417;28;20194;-72
2022/04/17 05:25:42;;;;;;;17.30;10.37;;;;;;;-0.85;100.00;102351.53;4952258;29;20735;-72
2022/04/17 05:28:09;;;;;;;19.10;10.40;;;;;;;-0.97;100.00;102354.38;4953132;28;20631;-72
2022/04/17 05:30:37;;;;;;;18.47;10.27;;;;;;;-1.16;100.00;102357.72;4952970;28;20458;-72
2022/04/17 05:33:03;;;;;;;17.23;10.20;;;;;;;-0.91;100.00;102354.69;4953084;28;20207;-72
2022/04/17 05:35:29;;;;;;;20.27;10.20;;;;;;;-0.69;100.00;102351.44;4951038;28;20230;-72
2022/04/17 05:37:56;;;;;;;18.93;9.23;;;;;;;-0.30;100.00;102343.91;4946280;29;20317;-72
2022/04/17 05:40:22;;;;;;;19.20;10.60;;;;;;;-0.18;100.00;102342.69;4952082;28;20207;-72
2022/04/17 05:42:49;;;;;;;19.80;9.97;;;;;;;-0.01;100.00;102342.63;4951733;29;20575;-72
2022/04/17 05:45:15;;;;;;;19.50;9.97;;;;;;;0.13;100.00;102356.06;4951013;28;20234;-72
2022/04/17 05:47:43;;;;;;;18.47;10.17;;;;;;;0.16;100.00;102353.66;4950886;29;20214;-73
2022/04/17 05:50:10;;;;;;;13.50;8.27;;;;;;;-0.09;100.00;102368.75;4951834;29;20686;-73
2022/04/17 05:52:37;;;;;;;19.60;8.97;;;;;;;0.02;100.00;102377.81;4952337;28;20217;-73
2022/04/17 05:55:03;;;;;;;12.67;7.63;;;;;;;0.11;100.00;102377.34;4952219;28;20226;-73
2022/04/17 05:57:30;;;;;;;15.80;8.30;;;;;;;0.11;100.00;102390.19;4952342;28;20215;-72
2022/04/17 05:59:56;;;;;;;13.33;6.43;;;;;;;0.07;92.91;102411.34;4946392;29;20206;-73
2022/04/17 06:02:23;;;;;;;9.50;5.80;;;;;;;0.14;88.93;102416.84;4952462;28;20213;-73
2022/04/17 06:04:51;;;;;;;9.23;5.90;;;;;;;0.21;86.65;102423.09;4952002;28;20210;-73
2022/04/17 06:07:25;;;;;;;14.53;7.27;;;;;;;0.25;86.69;102404.50;4952336;28;20217;-73
2022/04/17 06:09:52;;;;;;;12.17;6.40;;;;;;;0.40;89.52;102411.09;4951819;28;20310;-73
2022/04/17 06:12:18;;;;;;;10.80;6.50;;;;;;;0.48;89.38;102405.50;4952083;28;20221;-73
2022/04/17 06:14:44;;;;;;;12.40;6.57;;;;;;;0.59;91.65;102412.78;4945438;28;20313;-73
2022/04/17 06:17:11;;;;;;;12.03;6.33;;;;;;;0.70;93.61;102397.06;4949442;28;20214;-73
2022/04/17 06:19:37;;;;;;;14.90;6.33;;;;;;;0.82;92.82;102395.81;4941789;29;20210;-73
2022/04/17 06:22:06;;;;;;;11.83;6.80;;;;;;;0.97;94.11;102392.97;4951454;28;20202;-73
2022/04/17 06:24:33;;;;;;;13.30;7.17;;;;;;;1.07;93.72;102384.84;4951221;28;20207;-73
2022/04/17 06:26:59;;;;;;;12.20;6.77;;;;;;;1.19;93.56;102385.34;4950136;28;20210;-73
2022/04/17 06:29:25;;;;;;;13.23;6.43;;;;;;;1.30;88.15;102399.53;4951429;28;20205;-73
2022/04/17 06:31:52;;;;;;;10.40;5.80;;;;;;;1.35;88.42;102393.69;4948367;28;20220;-73
2022/04/17 06:34:18;;;;;;;10.27;5.87;;;;;;;1.57;94.79;102380.88;4949971;29;20206;-73
2022/04/17 06:36:44;;;;;;;8.83;5.53;;;;;;;1.72;94.88;102382.25;4941031;28;20261;-73
2022/04/17 06:39:12;;;;;;;10.10;4.60;;;;;;;1.84;93.37;102382.72;4951141;28;20203;-73
2022/04/17 06:41:38;;;;;;;6.80;4.80;;;;;;;1.87;82.65;102400.88;4951568;28;20319;-73
2022/04/17 06:44:05;;;;;;;8.10;5.13;;;;;;;2.00;89.01;102397.03;4949802;28;20644;-73
2022/04/17 06:46:32;;;;;;;7.93;4.80;;;;;;;2.17;84.13;102400.25;4949988;28;20233;-73
2022/04/17 06:48:58;;;;;;;8.10;4.53;;;;;;;2.32;80.04;102407.66;4950193;28;20210;-73
2022/04/17 06:51:25;;;;;;;9.73;4.47;;;;;;;2.27;81.82;102405.78;4949906;28;20197;-73
2022/04/17 06:53:52;;;;;;;7.20;4.90;;;;;;;2.42;84.23;102400.31;4950335;28;20894;-73
2022/04/17 06:56:20;;;;;;;8.00;4.60;;;;;;;2.55;78.94;102409.38;4950083;28;20305;-73
2022/04/17 06:58:46;;;;;;;6.67;4.43;;;;;;;2.73;78.34;102413.41;4950786;28;20210;-73
2022/04/17 07:01:14;;;;;;;7.97;4.57;;;;;;;2.88;78.72;102415.63;4950459;28;20207;-73
2022/04/17 07:03:41;;;;;;;8.47;5.47;;;;;;;2.99;77.13;102417.75;4948094;29;20217;-73
2022/04/17 07:06:07;;;;;;;7.97;4.80;;;;;;;3.17;78.61;102419.19;4949866;28;20222;-73
2022/04/17 07:08:33;;;;;;;9.50;4.90;;;;;;;3.26;75.71;102422.06;4949881;28;20666;-73
2022/04/17 07:11:00;;;;;;;8.63;4.87;;;;;;;3.36;77.84;102421.53;4946001;28;20203;-73
2022/04/17 07:13:28;;;;;;;8.43;4.93;;;;;;;3.49;75.23;102425.38;4949224;28;20568;-73
2022/04/17 07:15:54;;;;;;;7.77;4.43;;;;;;;3.64;78.17;102418.94;4949139;28;20230;-73
2022/04/17 07:18:21;;;;;;;8.33;4.83;;;;;;;3.70;76.04;102414.00;4950138;28;20285;-73
2022/04/17 07:20:47;;;;;;;8.67;4.30;;;;;;;3.80;74.58;102423.75;4944938;28;20209;-73
2022/04/17 07:23:14;;;;;;;7.53;4.80;;;;;;;3.92;73.28;102420.66;4953183;28;20206;-74
2022/04/17 07:25:40;;;;;;;8.20;4.03;;;;;;;4.05;75.32;102425.38;4952120;28;20221;-73
2022/04/17 07:28:12;;;;;;;7.10;4.03;;;;;;;4.24;74.46;102413.88;4953076;28;20207;-73
2022/04/17 07:30:39;;;;;;;7.60;3.90;;;;;;;4.35;72.71;102421.91;4953583;29;20290;-73
2022/04/17 07:33:06;;;;;;;5.47;3.73;;;;;;;4.47;75.80;102411.06;4947488;28;20207;-73
2022/04/17 07:35:32;;;;;;;6.90;4.07;;;;;;;4.63;73.67;102412.34;4953428;28;20233;-73
2022/04/17 07:38:01;;;;;;;7.13;3.70;;;;;;;4.68;70.82;102414.22;4952253;28;20571;-73
2022/04/17 07:40:29;;;;;;;5.80;3.40;;;;;;;4.73;69.81;102409.16;4950842;28;20211;-73
2022/04/17 07:42:59;;;;;;;5.43;3.30;;;;;;;4.87;66.24;102414.69;4953102;28;20203;-73
2022/04/17 07:45:26;;;;;;;6.77;3.70;;;;;;;4.95;65.99;102410.59;4953124;28;20214;-73
2022/04/17 07:47:54;;;;;;;8.60;4.40;;;;;;;5.06;68.24;102408.28;4951383;28;20214;-73
2022/04/17 07:50:23;;;;;;;7.93;4.47;;;;;;;5.13;70.18;102399.84;4950430;29;20206;-73
2022/04/17 07:52:50;;;;;;;6.00;4.10;;;;;;;5.28;70.83;102400.22;4952886;28;20238;-73
2022/04/17 07:55:17;;;;;;;5.37;4.03;;;;;;;5.41;66.68;102403.09;4952468;29;20222;-73
2022/04/17 07:58:03;;;;;;;7.57;3.90;;;;;;;5.64;67.91;102398.47;4952668;28;20209;-73
2022/04/17 08:00:33;;;;;;;10.13;5.33;;;;;;;5.79;66.35;102395.34;4952954;28;20215;-73
2022/04/17 08:03:09;;;;;;;7.40;3.53;;;;;;;6.02;65.09;102398.47;4952635;28;20202;-73
2022/04/17 08:05:37;;;;;;;7.33;4.13;;;;;;;6.19;64.15;102394.50;4951564;29;20322;-73
2022/04/17 08:08:04;;;;;;;7.50;4.90;;;;;;;6.31;66.85;102383.50;4951609;28;20207;-73
2022/04/17 08:10:30;;;;;;;7.53;4.77;;;;;;;6.32;64.92;102384.38;4951946;28;20214;-73
2022/04/17 08:12:57;;;;;;;9.20;5.27;;;;;;;6.31;64.91;102380.91;4952393;28;20207;-73
2022/04/17 08:15:23;;;;;;;9.20;4.83;;;;;;;6.57;69.19;102371.03;4951912;28;20339;-73
2022/04/17 08:17:49;;;;;;;7.30;4.23;;;;;;;6.75;62.71;102380.84;4952062;28;20202;-73
2022/04/17 08:20:17;;;;;;;5.97;4.13;;;;;;;7.00;60.25;102386.47;4951693;28;20210;-74
2022/04/17 08:22:43;;;;;;;9.43;5.33;;;;;;;7.26;58.53;102386.88;4951733;28;20487;-73
2022/04/17 08:25:10;;;;;;;7.83;4.00;;;;;;;7.42;55.06;102394.91;4951111;28;20226;-74
2022/04/17 08:27:45;;;;;;;2.77;2.40;;;;;;;7.30;55.26;102382.63;4951869;28;20202;-73
2022/04/17 08:30:12;;;;;;;6.53;3.80;;;;;;;7.35;53.05;102392.25;4950271;29;20266;-74
2022/04/17 08:32:38;;;;;;;4.87;2.73;;;;;;;7.49;53.78;102388.97;4951144;28;20199;-74
2022/04/17 08:35:06;;;;;;;5.13;2.87;;;;;;;7.55;54.58;102383.88;4947136;28;20595;-74
2022/04/17 08:37:34;;;;;;;5.13;3.00;;;;;;;7.64;54.70;102385.72;4951502;28;20220;-74
2022/04/17 08:40:00;;;;;;;5.80;3.63;;;;;;;7.78;54.44;102373.81;4950638;28;20197;-74
2022/04/17 08:42:28;;;;;;;6.00;3.63;;;;;;;7.97;52.76;102380.97;4951476;28;20751;-73
2022/04/17 08:44:54;;;;;;;8.73;5.17;;;;;;;8.14;51.64;102389.00;4948482;28;20229;-74
2022/04/17 08:47:20;;;;;;;4.03;3.00;;;;;;;8.02;52.15;102375.84;4951330;29;20196;-73
2022/04/17 08:49:48;;;;;;;3.53;2.90;;;;;;;8.19;50.39;102385.56;4951207;28;20664;-73
2022/04/17 08:52:17;;;;;;;4.07;3.23;;;;;;;8.24;51.58;102370.91;4951223;28;20207;-74
2022/04/17 08:54:47;;;;;;;4.20;2.70;;;;;;;8.35;50.42;102377.09;4950788;29;20243;-73
2022/04/17 08:57:13;;;;;;;4.00;2.70;;;;;;;8.45;48.68;102375.50;4950561;28;20214;-73
2022/04/17 08:59:39;;;;;;;5.43;3.00;;;;;;;8.59;49.02;102366.13;4948822;28;20686;-73
2022/04/17 09:02:08;;;;;;;6.60;3.87;;;;;;;8.61;49.22;102369.59;4950719;28;20208;-73
2022/04/17 09:04:34;;;;;;;4.37;2.60;;;;;;;8.53;47.93;102366.94;4950775;28;20212;-72
2022/04/17 09:07:01;;;;;;;4.03;2.87;;;;;;;8.45;49.56;102352.09;4951531;28;20199;-74
2022/04/17 09:09:28;;;;;;;4.23;2.40;;;;;;;8.33;48.94;102351.06;4949108;28;20213;-73
2022/04/17 09:11:55;;;;;;;4.60;2.67;;;;;;;8.51;49.18;102354.75;4950459;28;20233;-72
2022/04/17 09:14:23;;;;;;;4.20;2.83;;;;;;;8.56;48.98;102347.88;4951255;29;20531;-74
2022/04/17 09:16:50;;;;;;;3.93;2.70;;;;;;;8.61;50.93;102342.72;4948934;28;20243;-74
2022/04/17 09:19:19;;;;;;;5.87;3.20;;;;;;;8.58;50.40;102342.69;4951069;28;20202;-74
2022/04/17 09:21:46;;;;;;;10.27;6.00;;;;;;;8.68;50.48;102335.00;4950862;28;20208;-73
2022/04/17 09:24:15;;;;;;;11.37;6.50;;;;;;;8.66;48.38;102335.84;4950447;28;20726;-74
2022/04/17 09:26:48;;;;;;;3.83;2.30;;;;;;;8.75;49.18;102317.72;4948654;29;20225;-72
2022/04/17 09:29:19;;;;;;;4.30;2.87;;;;;;;8.77;49.77;102322.94;4950857;28;20695;-74
2022/04/17 09:31:47;;;;;;;3.27;2.60;;;;;;;8.74;50.30;102312.50;4951128;28;20203;-73
2022/04/17 09:34:14;;;;;;;4.43;2.57;;;;;;;8.88;50.16;102301.38;4950016;28;20687;-74
2022/04/17 09:36:40;;;;;;;5.07;3.07;;;;;;;8.91;49.17;102310.91;4963382;28;20579;-73
2022/04/17 09:39:15;;;;;;;8.97;4.80;;;;;;;8.91;50.58;102293.56;4949383;28;20223;-73
2022/04/17 09:41:55;;;;;;;7.53;3.10;;;;;;;8.93;50.15;102293.56;4950003;29;20660;-74
2022/04/17 09:44:45;;;;;;;5.37;3.00;;;;;;;9.05;49.69;102292.78;4948390;28;20916;-74
2022/04/17 09:47:16;;;;;;;6.17;3.60;;;;;;;9.10;48.73;102288.50;4949623;29;20197;-74
2022/04/17 09:49:57;;;;;;;4.87;2.73;;;;;;;9.17;48.85;102287.66;4948674;29;20214;-73
2022/04/17 09:52:26;;;;;;;4.40;3.10;;;;;;;9.30;47.70;102278.19;4948804;29;20232;-74
2022/04/17 09:54:53;;;;;;;3.17;2.40;;;;;;;9.28;47.56;102283.38;4950952;28;20255;-74
2022/04/17 09:57:30;;;;;;;3.27;2.40;;;;;;;9.29;47.96;102274.72;4949928;29;20241;-72
2022/04/17 10:00:05;;;;;;;5.03;2.87;;;;;;;9.75;48.23;102268.00;4950347;29;20201;-74
2022/04/17 10:02:32;;;;;;;4.00;2.63;;;;;;;9.61;46.63;102273.16;4949741;28;20197;-73
2022/04/17 10:05:00;;;;;;;4.05;2.50;;;;;;;9.58;46.68;102265.31;4964761;23;20236;-69
2022/04/17 10:07:27;;;;;;;3.63;2.93;;;;;;;9.79;47.66;102257.56;4967601;28;20294;-70
2022/04/17 10:09:53;;;;;;;4.13;2.83;;;;;;;9.78;46.22;102266.28;4968740;28;20677;-70
2022/04/17 10:12:20;;;;;;;3.10;2.50;;;;;;;9.84;46.19;102255.84;4968023;28;20206;-70
2022/04/17 10:14:49;;;;;;;4.63;2.70;;;;;;;9.90;46.03;102256.75;4968803;28;20300;-70
2022/04/17 10:17:19;;;;;;;3.17;2.30;;;;;;;9.99;45.94;102255.03;4949544;28;20214;-70
2022/04/17 10:19:47;;;;;;;5.50;2.77;;;;;;;10.10;45.98;102247.25;4940877;29;20301;-70
2022/04/17 10:22:18;;;;;;;3.67;2.60;;;;;;;10.23;46.49;102243.75;4944340;29;20201;-70
2022/04/17 10:24:51;;;;;;;4.30;2.30;;;;;;;10.34;46.35;102237.72;4940511;29;20199;-70
2022/04/17 10:27:20;;;;;;;3.13;2.27;;;;;;;10.32;46.44;102239.47;4949172;28;20230;-70
2022/04/17 10:29:50;;;;;;;4.17;2.43;;;;;;;10.29;46.48;102237.72;4949167;28;20207;-70
2022/04/17 10:32:48;;;;;;;4.37;2.10;;;;;;;10.48;47.75;102227.31;4946322;29;20202;-70
2022/04/17 10:35:26;;;;;;;2.67;2.13;;;;;;;10.63;47.24;102224.69;4943302;29;21896;-70
2022/04/17 10:38:19;;;;;;;3.40;2.30;;;;;;;10.64;44.66;102226.44;4942861;29;20269;-70
2022/04/17 10:40:52;;;;;;;5.03;3.23;;;;;;;10.67;44.58;102231.63;4947058;29;20202;-70
2022/04/17 10:43:19;;;;;;;3.07;2.43;;;;;;;10.78;44.97;102214.25;4949140;28;20212;-71
2022/04/17 10:46:11;;;;;;;3.10;2.00;;;;;;;10.70;46.55;102210.78;4948181;28;20234;-70
2022/04/17 10:48:46;;;;;;;4.53;2.57;;;;;;;11.02;46.07;102215.06;4948346;29;20205;-70
2022/04/17 10:51:20;;;;;;;3.43;2.30;;;;;;;11.07;44.57;102215.06;4948983;28;20197;-70
2022/04/17 10:54:05;;;;;;;3.70;1.77;;;;;;;11.16;42.93;102217.63;4945789;29;20200;-70
2022/04/17 10:56:33;;;;;;;2.57;1.73;;;;;;;11.17;44.60;102208.94;4946454;29;20254;-71
2022/04/17 10:59:03;;;;;;;2.90;1.87;;;;;;;11.13;42.17;102196.75;4942912;29;20326;-70
2022/04/17 11:01:53;;;;;;;2.07;1.70;;;;;;;11.53;43.57;102200.06;4948722;28;20236;-71
2022/04/17 11:04:22;;;;;;;2.50;1.83;;;;;;;11.61;41.90;102196.53;4947864;28;20669;-70
2022/04/17 11:06:53;;;;;;;2.33;1.83;;;;;;;11.80;41.26;102194.69;4948051;28;20233;-71
2022/04/17 11:09:21;;;;;;;2.73;1.70;;;;;;;11.95;41.80;102199.00;4944094;28;20691;-70
2022/04/17 11:11:47;;;;;;;2.47;1.97;;;;;;;11.86;41.37;102197.28;4943234;28;20307;-71
2022/04/17 11:14:16;;;;;;;3.57;1.80;;;;;;;11.90;41.48;102192.03;4937608;28;20203;-70
2022/04/17 11:16:47;;;;;;;2.70;1.70;;;;;;;11.98;41.24;102191.09;4944273;28;20765;-70
2022/04/17 11:19:15;;;;;;;2.63;1.70;;;;;;;12.09;41.40;102184.94;4944365;28;20296;-70
2022/04/17 11:21:45;;;;;;;2.37;1.90;;;;;;;12.03;40.71;102173.66;4941924;28;20212;-70
2022/04/17 11:24:11;;;;;;;3.23;2.30;;;;;;;12.08;40.33;102184.94;4942371;28;20212;-70
2022/04/17 11:27:12;;;;;;;3.37;1.77;;;;;;;12.18;41.31;102164.84;4943414;28;20229;-70
2022/04/17 11:29:41;;;;;;;2.20;1.50;;;;;;;12.50;39.65;102170.66;4944892;28;20217;-70
2022/04/17 11:32:46;;;;;;;2.40;2.00;;;;;;;12.62;39.87;102168.78;4944046;29;20245;-70
2022/04/17 11:35:14;;;;;;;5.27;2.30;;;;;;;13.14;40.36;102155.13;4946959;29;20308;-71
2022/04/17 11:37:51;;;;;;;3.13;1.80;;;;;;;13.20;38.97;102159.41;4947207;28;20634;-70
2022/04/17 11:40:19;;;;;;;4.03;2.20;;;;;;;13.20;39.38;102148.94;4941543;28;20271;-71